Terminal Aerodrome Forecast
Issued by NWS Quad Cities IA IL

Home | Current Version | Previous Version | Text Only | Print | Product List | Glossary On
Versions: 1 2 3 4 5 6 7 8 9 10 11 12 13 14 15 16 17
723
FTUS43 KDVN 111720
TAFMLI
TAF
KMLI 111720Z 1118/1218 04005KT P6SM SCT200
     FM112200 19005KT P6SM BKN100
     FM120300 24006KT 4SM -SN BR OVC018
     FM121000 28010KT P6SM OVC025=

USA.gov is the U.S. government's official web portal to all federal, state and local government web resources and services.